createdAt,value
2022-07-30T00:02:37.034Z,20.08
2022-07-30T00:05:22.807Z,20.06
2022-07-30T00:08:08.121Z,19.96
2022-07-30T00:10:53.700Z,20.07
2022-07-30T00:13:39.182Z,20.14
2022-07-30T00:16:24.933Z,20.05
2022-07-30T00:19:10.677Z,19.94
2022-07-30T00:21:56.456Z,19.86
2022-07-30T00:24:42.071Z,19.78
2022-07-30T00:27:30.662Z,19.83
2022-07-30T00:30:16.317Z,19.88
2022-07-30T00:33:02.149Z,19.85
2022-07-30T00:35:48.003Z,19.83
2022-07-30T00:38:33.764Z,19.86
2022-07-30T00:41:19.100Z,19.81
2022-07-30T00:44:04.834Z,19.79
2022-07-30T00:46:50.373Z,19.77
2022-07-30T00:49:35.898Z,19.86
2022-07-30T00:52:21.513Z,19.88
2022-07-30T00:55:10.084Z,19.87
2022-07-30T00:57:55.708Z,19.87
2022-07-30T01:00:41.013Z,19.90
2022-07-30T01:03:26.397Z,19.95
2022-07-30T01:06:14.059Z,19.83
2022-07-30T01:09:00.109Z,19.96
2022-07-30T01:11:45.536Z,19.92
2022-07-30T01:14:31.188Z,19.91
2022-07-30T01:17:16.703Z,19.87
2022-07-30T01:20:09.457Z,19.81
2022-07-30T01:23:01.422Z,19.86
2022-07-30T01:26:07.462Z,19.81
2022-07-30T01:28:55.857Z,19.78
2022-07-30T01:31:42.989Z,19.63
2022-07-30T01:34:32.575Z,19.67
2022-07-30T01:37:20.499Z,19.69
2022-07-30T01:40:06.827Z,19.81
2022-07-30T01:42:58.211Z,19.83
2022-07-30T01:45:44.609Z,19.58
2022-07-30T01:48:32.614Z,19.29
2022-07-30T01:51:19.706Z,19.15
2022-07-30T01:54:10.826Z,18.95
2022-07-30T01:56:58.701Z,18.99
2022-07-30T01:59:47.577Z,18.98
2022-07-30T02:02:36.054Z,19.13
2022-07-30T02:05:21.849Z,19.25
2022-07-30T02:08:38.662Z,19.21
2022-07-30T02:11:42.353Z,19.01
2022-07-30T02:14:30.762Z,19.03
2022-07-30T02:17:21.094Z,19.14
2022-07-30T02:20:16.644Z,19.14
2022-07-30T02:23:10.291Z,19.14
2022-07-30T02:25:59.229Z,19.09
2022-07-30T02:28:49.497Z,19.11
2022-07-30T02:31:37.069Z,19.15
2022-07-30T02:34:24.925Z,19.16
2022-07-30T02:37:12.527Z,19.20
2022-07-30T02:39:58.320Z,19.22
2022-07-30T02:42:47.024Z,19.07
2022-07-30T02:45:34.867Z,19.08
2022-07-30T02:48:29.200Z,19.07
2022-07-30T02:51:22.278Z,19.06
2022-07-30T02:54:09.677Z,19.08
2022-07-30T02:57:01.365Z,18.99
2022-07-30T02:59:49.326Z,18.88
2022-07-30T03:02:36.626Z,18.79
2022-07-30T03:05:25.909Z,18.68
2022-07-30T03:08:12.830Z,18.57
2022-07-30T03:11:05.640Z,18.50
2022-07-30T03:13:51.110Z,18.42
2022-07-30T03:16:38.560Z,18.45
2022-07-30T03:19:29.122Z,18.36
2022-07-30T03:22:17.331Z,18.35
2022-07-30T03:25:04.077Z,18.21
2022-07-30T03:27:50.868Z,18.23
2022-07-30T03:30:36.146Z,18.24
2022-07-30T03:33:22.228Z,18.19
2022-07-30T03:36:09.805Z,18.22
2022-07-30T03:38:55.941Z,18.24
2022-07-30T03:41:41.627Z,18.13
2022-07-30T03:44:27.507Z,18.09
2022-07-30T03:47:14.548Z,17.99
2022-07-30T03:50:00.168Z,17.94
2022-07-30T03:52:46.031Z,17.98
2022-07-30T03:55:32.440Z,17.81
2022-07-30T03:58:17.829Z,17.90
2022-07-30T04:01:03.389Z,17.89
2022-07-30T04:03:48.811Z,17.88
2022-07-30T04:06:42.857Z,17.89
2022-07-30T04:09:28.245Z,17.89
2022-07-30T04:12:13.874Z,17.90
2022-07-30T04:14:59.857Z,17.94
2022-07-30T04:17:51.549Z,17.98
2022-07-30T04:20:42.071Z,17.96
2022-07-30T04:23:28.059Z,17.99
2022-07-30T04:26:14.757Z,17.96
2022-07-30T04:29:01.291Z,18.03
2022-07-30T04:31:47.015Z,18.12
2022-07-30T04:34:33.399Z,18.21
2022-07-30T04:37:20.919Z,18.27
2022-07-30T04:40:06.928Z,18.33
2022-07-30T04:42:52.290Z,18.49
2022-07-30T04:45:39.353Z,18.43
2022-07-30T04:48:26.705Z,18.61
2022-07-30T04:51:23.867Z,18.85
2022-07-30T04:54:15.437Z,18.84
2022-07-30T04:57:02.339Z,18.99
2022-07-30T04:59:48.013Z,19.03
2022-07-30T05:02:37.612Z,19.09
2022-07-30T05:05:26.026Z,19.31
2022-07-30T05:08:12.681Z,19.33
2022-07-30T05:10:58.127Z,19.47
2022-07-30T05:13:46.348Z,19.55
2022-07-30T05:16:34.049Z,19.68
2022-07-30T05:19:20.844Z,19.74
2022-07-30T05:22:06.910Z,19.82
2022-07-30T05:24:52.372Z,19.87
2022-07-30T05:27:37.857Z,20.14
2022-07-30T05:30:26.769Z,20.09
2022-07-30T05:33:15.592Z,20.05
2022-07-30T05:36:01.621Z,20.18
2022-07-30T05:38:48.156Z,20.20
2022-07-30T05:41:33.644Z,20.41
2022-07-30T05:44:23.605Z,20.45
2022-07-30T05:47:09.650Z,20.43
2022-07-30T05:49:55.240Z,20.82
2022-07-30T05:52:40.567Z,20.90
2022-07-30T05:55:26.067Z,20.93
2022-07-30T05:58:11.664Z,21.09
2022-07-30T06:00:57.158Z,21.46
2022-07-30T06:03:42.512Z,21.74
2022-07-30T06:06:28.101Z,21.60
2022-07-30T06:09:14.061Z,21.87
2022-07-30T06:11:59.431Z,22.23
2022-07-30T06:14:44.850Z,22.45
2022-07-30T06:17:30.420Z,22.82
2022-07-30T06:20:16.980Z,23.00
2022-07-30T06:23:02.738Z,22.89
2022-07-30T06:25:49.648Z,22.88
2022-07-30T06:28:38.017Z,22.97
2022-07-30T06:31:24.325Z,22.88
2022-07-30T06:34:09.762Z,23.09
2022-07-30T06:36:55.281Z,22.60
2022-07-30T06:39:55.913Z,22.52
2022-07-30T06:42:43.650Z,22.35
2022-07-30T06:45:29.177Z,22.34
2022-07-30T06:48:14.834Z,22.37
2022-07-30T06:51:00.462Z,22.42
2022-07-30T06:53:45.922Z,22.62
2022-07-30T06:56:31.520Z,22.76
2022-07-30T06:59:17.249Z,22.59
2022-07-30T07:02:03.678Z,22.58
2022-07-30T07:04:49.293Z,22.77
2022-07-30T07:07:41.834Z,22.59
2022-07-30T07:10:28.931Z,22.51
2022-07-30T07:13:14.673Z,22.58
2022-07-30T07:16:00.170Z,22.95
2022-07-30T07:18:45.831Z,22.91
2022-07-30T07:21:31.712Z,22.93
2022-07-30T07:24:17.222Z,23.16
2022-07-30T07:27:03.776Z,23.01
2022-07-30T07:30:05.121Z,23.05
2022-07-30T07:32:51.678Z,23.03
2022-07-30T07:35:41.142Z,23.56
2022-07-30T07:38:36.508Z,22.74
2022-07-30T07:41:22.177Z,23.72
2022-07-30T07:44:07.494Z,24.63
2022-07-30T07:46:52.817Z,24.80
2022-07-30T07:49:38.498Z,25.30
2022-07-30T07:52:24.208Z,25.40
2022-07-30T07:55:10.261Z,25.47
2022-07-30T07:57:56.102Z,25.41
2022-07-30T08:00:42.305Z,25.60
2022-07-30T08:03:27.711Z,25.65
2022-07-30T08:06:15.227Z,25.52
2022-07-30T08:09:02.056Z,25.67
2022-07-30T08:11:47.919Z,26.13
2022-07-30T08:14:33.174Z,26.41
2022-07-30T08:17:19.919Z,26.54
2022-07-30T08:20:07.092Z,25.95
2022-07-30T08:22:52.829Z,26.27
2022-07-30T08:25:38.267Z,26.94
2022-07-30T08:28:35.838Z,28.08
2022-07-30T08:31:22.068Z,28.16
2022-07-30T08:34:07.745Z,28.68
2022-07-30T08:36:53.240Z,28.74
2022-07-30T08:39:38.815Z,28.57
2022-07-30T08:42:24.514Z,29.43
2022-07-30T08:45:12.836Z,29.14
2022-07-30T08:48:00.942Z,30.14
2022-07-30T08:50:46.593Z,30.58
2022-07-30T08:53:34.300Z,30.10
2022-07-30T08:56:20.063Z,30.46
2022-07-30T08:59:05.504Z,29.96
2022-07-30T09:01:52.021Z,30.53
2022-07-30T09:04:37.756Z,30.65
2022-07-30T09:07:23.090Z,30.15
2022-07-30T09:10:10.198Z,31.03
2022-07-30T09:12:55.545Z,32.50
2022-07-30T09:15:41.289Z,32.67
2022-07-30T09:18:29.406Z,33.63
2022-07-30T09:21:26.179Z,33.40
2022-07-30T09:24:13.222Z,33.34
2022-07-30T09:27:01.242Z,33.13
2022-07-30T09:29:58.558Z,30.67
2022-07-30T09:32:49.237Z,31.99
2022-07-30T09:35:35.500Z,30.34
2022-07-30T09:38:21.096Z,30.22
2022-07-30T09:41:22.780Z,31.67
2022-07-30T09:44:23.721Z,32.64
2022-07-30T09:47:09.296Z,32.83
2022-07-30T09:50:09.932Z,33.09
2022-07-30T09:53:06.622Z,33.54
2022-07-30T09:55:52.819Z,33.33
2022-07-30T09:58:40.347Z,35.46
2022-07-30T10:01:54.733Z,35.93
2022-07-30T10:04:43.438Z,36.76
2022-07-30T10:07:29.453Z,35.00
2022-07-30T10:10:31.171Z,36.48
2022-07-30T10:13:19.736Z,36.67
2022-07-30T10:16:06.910Z,37.78
2022-07-30T10:18:52.568Z,37.95
2022-07-30T10:21:38.163Z,37.26
2022-07-30T10:24:27.365Z,37.61
2022-07-30T10:27:13.497Z,39.63
2022-07-30T10:30:03.568Z,38.30
2022-07-30T10:32:52.435Z,36.39
2022-07-30T10:35:38.635Z,35.70
2022-07-30T10:38:30.272Z,34.72
2022-07-30T10:41:48.093Z,35.21
2022-07-30T10:44:47.929Z,33.45
2022-07-30T10:47:40.406Z,35.57
2022-07-30T10:50:53.087Z,36.34
2022-07-30T10:53:46.580Z,37.20
2022-07-30T10:56:31.892Z,39.04
2022-07-30T10:59:18.950Z,37.17
2022-07-30T11:02:08.996Z,38.47
2022-07-30T11:05:17.196Z,39.16
2022-07-30T11:08:31.909Z,36.04
2022-07-30T11:11:59.532Z,36.57
2022-07-30T11:14:48.176Z,34.39
2022-07-30T11:17:58.315Z,33.79
2022-07-30T11:21:20.623Z,33.18
2022-07-30T11:24:07.216Z,32.87
2022-07-30T11:26:54.889Z,32.07
2022-07-30T11:29:50.894Z,31.97
2022-07-30T11:32:37.012Z,32.35
2022-07-30T11:35:34.897Z,33.08
2022-07-30T11:38:22.326Z,33.55
2022-07-30T11:41:07.854Z,34.01
2022-07-30T11:44:28.867Z,37.56
2022-07-30T11:47:14.246Z,39.92
2022-07-30T11:49:59.691Z,40.57
2022-07-30T11:53:05.515Z,42.52
2022-07-30T11:55:52.927Z,42.30
2022-07-30T11:58:39.981Z,43.36
2022-07-30T12:01:25.954Z,44.75
2022-07-30T12:04:11.667Z,43.06
2022-07-30T12:06:57.249Z,44.67
2022-07-30T12:09:43.740Z,43.05
2022-07-30T12:12:29.468Z,41.85
2022-07-30T12:15:33.657Z,40.31
2022-07-30T12:18:29.972Z,38.19
2022-07-30T12:21:16.146Z,36.37
2022-07-30T12:24:13.605Z,37.27
2022-07-30T12:27:08.477Z,35.43
2022-07-30T12:29:53.826Z,33.70
2022-07-30T12:32:39.530Z,33.80
2022-07-30T12:35:49.025Z,34.81
2022-07-30T12:38:50.365Z,38.50
2022-07-30T12:41:47.143Z,39.33
2022-07-30T12:44:44.812Z,43.25
2022-07-30T12:47:31.050Z,43.20
2022-07-30T12:50:17.355Z,43.33
2022-07-30T12:53:03.791Z,43.56
2022-07-30T12:55:49.354Z,41.92
2022-07-30T12:58:38.258Z,43.29
2022-07-30T13:01:39.769Z,43.16
2022-07-30T13:04:26.410Z,39.55
2022-07-30T13:07:12.415Z,36.26
2022-07-30T13:10:11.474Z,37.98
2022-07-30T13:12:58.159Z,40.06
2022-07-30T13:15:46.423Z,40.47
2022-07-30T13:18:40.559Z,43.11
2022-07-30T13:21:26.089Z,41.98
2022-07-30T13:24:18.285Z,43.11
2022-07-30T13:27:04.247Z,43.01
2022-07-30T13:29:50.434Z,45.17
2022-07-30T13:32:36.184Z,42.59
2022-07-30T13:35:22.138Z,44.77
2022-07-30T13:38:07.944Z,45.40
2022-07-30T13:40:54.788Z,42.10
2022-07-30T13:43:42.503Z,43.59
2022-07-30T13:46:28.204Z,45.00
2022-07-30T13:49:13.846Z,43.24
2022-07-30T13:51:59.547Z,43.70
2022-07-30T13:54:45.165Z,44.84
2022-07-30T13:57:30.475Z,43.65
2022-07-30T14:00:16.753Z,42.63
2022-07-30T14:03:07.945Z,44.53
2022-07-30T14:05:53.449Z,44.21
2022-07-30T14:08:39.293Z,40.43
2022-07-30T14:11:25.238Z,37.71
2022-07-30T14:14:10.813Z,37.32
2022-07-30T14:16:56.370Z,38.07
2022-07-30T14:19:42.338Z,41.11
2022-07-30T14:22:28.095Z,39.96
2022-07-30T14:25:13.466Z,37.17
2022-07-30T14:27:58.956Z,35.27
2022-07-30T14:30:44.414Z,33.84
2022-07-30T14:33:29.906Z,32.55
2022-07-30T14:36:15.177Z,32.45
2022-07-30T14:39:01.934Z,31.97
2022-07-30T14:41:47.213Z,31.69
2022-07-30T14:44:33.098Z,31.15
2022-07-30T14:47:18.869Z,31.03
2022-07-30T14:50:05.360Z,30.90
2022-07-30T14:52:51.930Z,31.20
2022-07-30T14:55:37.528Z,31.07
2022-07-30T14:58:23.626Z,31.03
2022-07-30T15:01:16.143Z,30.98
2022-07-30T15:04:02.468Z,30.50
2022-07-30T15:06:47.997Z,30.27
2022-07-30T15:09:34.047Z,30.20
2022-07-30T15:12:26.527Z,30.11
2022-07-30T15:15:12.561Z,30.20
2022-07-30T15:17:59.850Z,30.04
2022-07-30T15:20:45.255Z,29.85
2022-07-30T15:23:30.778Z,29.31
2022-07-30T15:26:16.499Z,29.05
2022-07-30T15:29:01.799Z,29.01
2022-07-30T15:31:47.418Z,28.79
2022-07-30T15:34:34.396Z,28.01
2022-07-30T15:37:20.125Z,27.99
2022-07-30T15:40:06.149Z,27.68
2022-07-30T15:42:51.849Z,27.17
2022-07-30T15:45:52.432Z,26.71
2022-07-30T15:48:41.917Z,26.37
2022-07-30T15:51:27.777Z,26.45
2022-07-30T15:54:13.980Z,26.16
2022-07-30T15:57:01.044Z,25.47
2022-07-30T15:59:47.224Z,24.40
2022-07-30T16:02:33.147Z,24.27
2022-07-30T16:05:18.856Z,23.69
2022-07-30T16:08:04.485Z,23.28
2022-07-30T16:10:49.953Z,22.96
2022-07-30T16:13:35.548Z,22.69
2022-07-30T16:16:21.056Z,22.26
2022-07-30T16:19:07.466Z,22.07
2022-07-30T16:21:52.969Z,21.72
2022-07-30T16:24:38.225Z,22.11
2022-07-30T16:27:25.477Z,22.02
2022-07-30T16:30:12.605Z,22.02
2022-07-30T16:32:57.884Z,21.96
2022-07-30T16:35:48.720Z,21.51
2022-07-30T16:38:36.023Z,21.56
2022-07-30T16:41:21.667Z,21.17
2022-07-30T16:44:07.380Z,21.10
2022-07-30T16:46:53.011Z,21.10
2022-07-30T16:49:38.686Z,21.15
2022-07-30T16:52:26.830Z,20.98
2022-07-30T16:55:13.461Z,20.43
2022-07-30T16:57:59.136Z,19.98
2022-07-30T17:00:44.550Z,19.73
2022-07-30T17:03:30.134Z,19.47
2022-07-30T17:06:15.757Z,19.40
2022-07-30T17:09:01.339Z,19.24
2022-07-30T17:11:52.041Z,19.17
2022-07-30T17:14:38.082Z,19.29
2022-07-30T17:17:23.554Z,19.32
2022-07-30T17:20:09.989Z,19.49
2022-07-30T17:22:56.015Z,19.64
2022-07-30T17:25:41.681Z,19.76
2022-07-30T17:28:27.381Z,19.60
2022-07-30T17:31:12.887Z,19.69
2022-07-30T17:33:58.298Z,19.50
2022-07-30T17:36:52.739Z,19.62
2022-07-30T17:40:27.225Z,19.85
2022-07-30T17:42:46.491Z,19.74
2022-07-30T17:45:35.947Z,19.81
2022-07-30T17:48:21.713Z,19.95
2022-07-30T17:51:07.035Z,20.09
2022-07-30T17:53:52.773Z,20.07
2022-07-30T17:56:39.207Z,20.25
2022-07-30T17:59:24.428Z,20.00
2022-07-30T18:02:10.086Z,19.99
2022-07-30T18:04:56.570Z,20.08
2022-07-30T18:07:43.580Z,19.96
2022-07-30T18:10:29.463Z,19.92
2022-07-30T18:13:26.183Z,19.90
2022-07-30T18:16:12.494Z,20.01
2022-07-30T18:18:57.816Z,20.00
2022-07-30T18:21:43.322Z,19.96
2022-07-30T18:24:31.118Z,19.81
2022-07-30T18:27:16.499Z,19.72
2022-07-30T18:30:02.091Z,19.74
2022-07-30T18:32:47.349Z,19.82
2022-07-30T18:35:32.983Z,19.75
2022-07-30T18:38:18.758Z,19.21
2022-07-30T18:41:04.223Z,19.08
2022-07-30T18:43:49.588Z,18.99
2022-07-30T18:46:35.024Z,19.18
2022-07-30T18:49:36.155Z,19.25
2022-07-30T18:52:22.721Z,19.28
2022-07-30T18:55:09.038Z,19.33
2022-07-30T18:57:54.535Z,19.40
2022-07-30T19:00:42.676Z,19.26
2022-07-30T19:03:28.080Z,19.20
2022-07-30T19:06:14.649Z,19.21
2022-07-30T19:09:00.113Z,19.27
2022-07-30T19:11:46.338Z,19.31
2022-07-30T19:14:31.741Z,19.38
2022-07-30T19:17:17.374Z,19.46
2022-07-30T19:20:05.399Z,19.33
2022-07-30T19:22:51.396Z,19.30
2022-07-30T19:25:39.111Z,19.37
2022-07-30T19:28:24.510Z,19.42
2022-07-30T19:31:09.830Z,19.12
2022-07-30T19:33:55.254Z,18.97
2022-07-30T19:36:41.979Z,18.99
2022-07-30T19:39:27.499Z,19.02
2022-07-30T19:42:13.565Z,18.98
2022-07-30T19:45:01.196Z,18.95
2022-07-30T19:47:50.053Z,19.28
2022-07-30T19:50:36.550Z,18.97
2022-07-30T19:53:22.346Z,18.91
2022-07-30T19:56:10.593Z,18.87
2022-07-30T19:58:56.785Z,18.86
2022-07-30T20:01:42.776Z,19.00
2022-07-30T20:04:28.205Z,19.03
2022-07-30T20:07:14.283Z,19.06
2022-07-30T20:10:00.344Z,18.92
2022-07-30T20:12:49.350Z,18.95
2022-07-30T20:15:35.093Z,18.79
2022-07-30T20:18:29.100Z,18.91
2022-07-30T20:21:16.199Z,18.88
2022-07-30T20:24:01.943Z,18.74
2022-07-30T20:26:47.325Z,18.77
2022-07-30T20:29:33.108Z,18.65
2022-07-30T20:32:19.414Z,18.52
2022-07-30T20:35:06.666Z,18.51
2022-07-30T20:37:55.512Z,18.49
2022-07-30T20:40:42.014Z,18.66
2022-07-30T20:43:28.686Z,18.67
2022-07-30T20:46:14.799Z,18.68
2022-07-30T20:49:01.132Z,18.60
2022-07-30T20:51:46.698Z,18.54
2022-07-30T20:54:37.006Z,18.68
2022-07-30T20:57:30.782Z,18.40
2022-07-30T21:00:36.586Z,18.40
2022-07-30T21:03:22.090Z,18.19
2022-07-30T21:06:07.350Z,18.17
2022-07-30T21:08:53.406Z,18.38
2022-07-30T21:11:47.537Z,18.23
2022-07-30T21:14:35.886Z,18.20
2022-07-30T21:17:21.532Z,18.17
2022-07-30T21:20:09.665Z,18.25
2022-07-30T21:22:55.989Z,18.28
2022-07-30T21:26:01.617Z,18.17
2022-07-30T21:28:47.645Z,18.14
2022-07-30T21:32:09.430Z,18.08
2022-07-30T21:34:42.265Z,18.03
2022-07-30T21:37:36.737Z,18.12
2022-07-30T21:40:24.630Z,18.13
2022-07-30T21:43:10.448Z,18.17
2022-07-30T21:45:57.547Z,18.23
2022-07-30T21:48:43.413Z,18.22
2022-07-30T21:51:29.077Z,18.12
2022-07-30T21:54:28.466Z,18.14
2022-07-30T21:57:15.126Z,18.32
2022-07-30T22:00:18.516Z,18.23
2022-07-30T22:03:04.741Z,18.18
2022-07-30T22:06:12.688Z,18.22
2022-07-30T22:08:58.433Z,18.15
2022-07-30T22:11:45.325Z,18.20
2022-07-30T22:14:32.165Z,18.12
2022-07-30T22:17:23.690Z,18.09
2022-07-30T22:20:22.738Z,18.14
2022-07-30T22:23:08.490Z,18.13
2022-07-30T22:25:54.209Z,18.17
2022-07-30T22:28:46.328Z,17.94
2022-07-30T22:31:39.656Z,18.16
2022-07-30T22:34:25.605Z,18.18
2022-07-30T22:37:12.961Z,18.11
2022-07-30T22:39:59.550Z,18.01
2022-07-30T22:42:50.058Z,17.94
2022-07-30T22:45:48.970Z,18.12
2022-07-30T22:48:35.402Z,18.21
2022-07-30T22:51:20.990Z,18.19
2022-07-30T22:54:13.084Z,18.16
2022-07-30T22:57:04.179Z,18.20
2022-07-30T22:59:59.876Z,18.14
2022-07-30T23:02:47.692Z,18.07
2022-07-30T23:05:35.350Z,18.14
2022-07-30T23:08:30.039Z,18.04
2022-07-30T23:11:16.157Z,18.13
2022-07-30T23:14:01.699Z,18.22
2022-07-30T23:16:50.262Z,18.20
2022-07-30T23:19:36.191Z,18.31
2022-07-30T23:22:21.588Z,18.19
2022-07-30T23:25:08.484Z,18.27
2022-07-30T23:27:54.173Z,18.25
2022-07-30T23:30:39.537Z,18.12
2022-07-30T23:33:25.009Z,18.05
2022-07-30T23:36:11.216Z,18.02
2022-07-30T23:38:56.700Z,18.00
2022-07-30T23:41:43.664Z,18.00
2022-07-30T23:44:28.991Z,17.96
2022-07-30T23:47:14.681Z,17.84
2022-07-30T23:50:00.246Z,17.87
2022-07-30T23:52:45.595Z,17.80
2022-07-30T23:55:32.088Z,17.81
2022-07-30T23:58:18.084Z,17.88
